Time,TemperatureF,DewpointF,PressureIn,WindDirection,WindDirectionDegrees,WindSpeedMPH,WindSpeedGustMPH,Humidity,HourlyPrecipIn,Conditions,Clouds,dailyrainin,SoftwareType,DateUTC
2013-12-23 01:50:00,59.0,26.0,28.63,ESE,120,2.0,5.0,28,0.00,,,-99.99,,2013-12-23 09:50:00,
2013-12-23 02:42:00,59.0,26.0,28.63,ESE,120,2.0,5.0,28,0.00,,,-99.99,,2013-12-23 10:42:00,
2013-12-23 02:50:00,59.0,25.0,28.63,ENE,70,6.0,8.0,27,0.00,,,-99.99,,2013-12-23 10:50:00,
2013-12-23 03:50:00,59.0,24.0,28.63,North,10,7.0,9.0,26,0.00,,,-99.99,,2013-12-23 11:50:00,
2013-12-23 04:42:00,59.0,24.0,28.63,North,10,7.0,9.0,26,0.00,,,-99.99,,2013-12-23 12:42:00,
2013-12-23 05:50:00,60.0,24.0,28.63,North,10,6.0,-999.0,25,0.00,,,-99.99,,2013-12-23 13:50:00,
2013-12-23 06:42:00,60.0,24.0,28.63,North,10,6.0,-999.0,25,0.00,,,-99.99,,2013-12-23 14:42:00,
2013-12-23 06:50:00,60.0,24.0,28.63,North,10,6.0,-999.0,25,0.00,,,-99.99,,2013-12-23 14:50:00,
2013-12-23 07:43:00,60.0,24.0,28.63,North,10,6.0,-999.0,25,0.00,,,-99.99,,2013-12-23 15:43:00,
2013-12-23 07:50:00,60.0,24.0,28.70,NNE,30,7.0,12.0,25,0.00,,,-99.99,,2013-12-23 15:50:00,
2013-12-23 08:43:00,60.0,24.0,28.70,NNE,30,7.0,12.0,25,0.00,,,-99.99,,2013-12-23 16:43:00,
2013-12-23 08:51:00,63.0,25.0,28.71,NE,50,4.0,7.0,23,0.00,,,-99.99,,2013-12-23 16:51:00,
2013-12-23 09:42:00,63.0,25.0,28.71,NE,50,4.0,7.0,23,0.00,,,-99.99,,2013-12-23 17:42:00,
2013-12-23 09:50:00,67.0,26.0,28.71,ENE,60,1.0,2.0,21,0.00,,,-99.99,,2013-12-23 17:50:00,
2013-12-23 10:42:00,67.0,26.0,28.71,ENE,60,1.0,2.0,21,0.00,,,-99.99,,2013-12-23 18:42:00,
2013-12-23 10:50:00,69.0,25.0,28.70,ENE,70,1.0,4.0,19,0.00,,,-99.99,,2013-12-23 18:50:00,
2013-12-23 11:42:00,69.0,25.0,28.70,ENE,70,1.0,4.0,19,0.00,,,-99.99,,2013-12-23 19:42:00,
2013-12-23 11:50:00,68.0,25.0,28.68,SSE,160,1.0,5.0,20,0.00,,,-99.99,,2013-12-23 19:50:00,
2013-12-23 12:42:00,68.0,25.0,28.68,SSE,160,1.0,5.0,20,0.00,,,-99.99,,2013-12-23 20:42:00,
2013-12-23 12:51:00,70.0,26.0,28.65,South,180,2.0,7.0,19,0.00,,,-99.99,,2013-12-23 20:51:00,
2013-12-23 13:43:00,70.0,26.0,28.65,South,180,2.0,7.0,19,0.00,,,-99.99,,2013-12-23 21:43:00,
2013-12-23 13:50:00,72.0,26.0,28.63,South,190,2.0,8.0,18,0.00,,,-99.99,,2013-12-23 21:50:00,
2013-12-23 14:43:00,72.0,26.0,28.63,South,190,2.0,8.0,18,0.00,,,-99.99,,2013-12-23 22:43:00,
2013-12-23 14:51:00,71.0,25.0,28.61,SSW,200,2.0,6.0,18,0.00,,,-99.99,,2013-12-23 22:51:00,
2013-12-23 15:42:00,71.0,25.0,28.61,SSW,200,2.0,6.0,18,0.00,,,-99.99,,2013-12-23 23:42:00,
2013-12-23 15:50:00,68.0,25.0,28.61,SSW,210,1.0,4.0,20,0.00,,,-99.99,,2013-12-23 23:50:00,
2013-12-23 16:22:00,68.0,25.0,28.61,SSW,210,1.0,4.0,20,0.00,,,-99.99,,2013-12-24 00:22:00,
2013-12-23 16:32:00,68.0,25.0,28.61,SSW,210,1.0,4.0,20,0.00,,,-99.99,,2013-12-24 00:32:00,
2013-12-23 16:42:00,68.0,25.0,28.61,SSW,210,1.0,4.0,20,0.00,,,-99.99,,2013-12-24 00:42:00,
2013-12-23 16:50:00,64.0,26.0,28.61,SSW,210,4.0,5.0,24,0.00,,,-99.99,,2013-12-24 00:50:00,
2013-12-23 17:42:00,64.0,26.0,28.61,SSW,210,4.0,5.0,24,0.00,,,-99.99,,2013-12-24 01:42:00,
2013-12-23 17:50:00,63.0,29.0,28.61,SSE,150,2.0,4.0,27,0.00,,,-99.99,,2013-12-24 01:50:00,
2013-12-23 18:42:00,63.0,29.0,28.61,SSE,150,2.0,4.0,27,0.00,,,-99.99,,2013-12-24 02:42:00,
2013-12-23 18:50:00,62.0,26.0,28.62,SSE,150,1.0,4.0,25,0.00,,,-99.99,,2013-12-24 02:50:00,
2013-12-23 19:43:00,62.0,26.0,28.62,SSE,150,1.0,4.0,25,0.00,,,-99.99,,2013-12-24 03:43:00,
2013-12-23 19:50:00,63.0,25.0,28.62,SSE,150,2.0,5.0,23,0.00,,,-99.99,,2013-12-24 03:50:00,
2013-12-23 20:43:00,63.0,25.0,28.62,SSE,150,2.0,5.0,23,0.00,,,-99.99,,2013-12-24 04:43:00,
2013-12-23 20:51:00,61.0,26.0,28.62,ENE,60,5.0,6.0,26,0.00,,,-99.99,,2013-12-24 04:51:00,
2013-12-23 21:42:00,61.0,26.0,28.62,ENE,60,5.0,6.0,26,0.00,,,-99.99,,2013-12-24 05:42:00,
2013-12-23 21:50:00,62.0,27.0,28.62,NNE,30,5.0,7.0,26,0.00,,,-99.99,,2013-12-24 05:50:00,
2013-12-23 22:42:00,62.0,27.0,28.62,NNE,30,5.0,7.0,26,0.00,,,-99.99,,2013-12-24 06:42:00,
2013-12-23 22:50:00,62.0,25.0,28.61,NNE,30,1.0,4.0,24,0.00,,,-99.99,,2013-12-24 06:50:00,
2013-12-23 23:42:00,62.0,25.0,28.61,NNE,30,1.0,4.0,24,0.00,,,-99.99,,2013-12-24 07:42:00,
2013-12-23 23:50:00,62.0,25.0,28.59,NNE,30,5.0,7.0,24,0.00,,,-99.99,,2013-12-24 07:50:00,